Covington, Oklahoma
Current Conditions -  °F | °C
As of 4:50 PM on Thursday 27 Nov 2014 (Local Time) from KWDG Reporting Station
Scattered Clouds Scattered Clouds  
Wind Chill: 44°   Ceiling: Unl
Heat Index: 48°   Visibility: 10mi
Dew Point: 23°   Wind: 9mph
Humidity: 37%   Direction: 170°S
Pressure: 30.31"   Gusts: NA
Location:  36.31°N, 97.59°W
Report Text: KWDG 272250Z 17008KT 10SM SCT200 09/M05 A3031
Loading
Personal Weather Stations






























Interactive Weather Map New forecast layout! Learn more

10-Day Weather Forecast

Advertisements
Track Severe Weather on mobile